Hoskings Ranch (222) Station Data

Red Flag Warning: No
Fire Weather Zone: 258
SDGE Region: Ramona
Lat/Lon: 33.083/-116.657

Observations

Time Wind Speed/Gust Temp(F) RH Fuel Moist Fuel Temp(F) Dewpt(F) Tmax(F) Tmin(F) Accum Precip 10-min Precip SL Press(mb)
4/26 2:40am 112 1 G 2 56° 47% - - 36° 57.3° 51.6° - - -
4/26 2:30am 174 0 G 2 56° 49% - - 37° 57.3° 51.6° - - -
4/26 2:20am 180 1 G 3 56° 49% - - 37° 57.3° 51.6° - - -
4/26 2:10am 174 2 G 4 57° 47% - - 37° 57.3° 51.6° - - -
4/26 2:00am 152 1 G 3 56° 49% - - 37° 56.8° 51.6° - - -
4/26 1:50am 136 1 G 3 56° 52% - - 38° 56.6° 51.6° - - -
4/26 1:40am 149 1 G 3 55° 53% - - 38° 56.6° 51.6° - - -
4/26 1:30am 160 2 G 3 56° 53% - - 39° 56.6° 51.6° - - -
4/26 1:20am 155 0 G 1 55° 55% - - 39° 56.6° 51.6° - - -
4/26 1:10am 178 1 G 3 56° 52% - - 39° 56.6° 51.6° - - -
4/26 1:00am 162 2 G 3 56° 53% - - 39° 56.4° 51.6° - - -
4/26 12:50am 167 1 G 2 55° 55% - - 40° 56.3° 51.6° - - -
4/26 12:40am 110 0 G 1 54° 60% - - 41° 55.1° 51.6° - - -
4/26 12:30am 80 1 G 3 53° 65% - - 41° 54.2° 51.6° - - -
4/26 12:20am 66 2 G 3 52° 69% - - 42° 53.9° 51.6° - - -
4/26 12:10am 65 2 G 4 53° 69% - - 43° 53.9° 51.8° - - -
4/26 12:00am 86 3 G 5 53° 69% - - 43° 56.6° 44.6° - - -
4/25 11:50pm 73 3 G 5 51° 77% - - 44° 56.6° 44.6° - - -
4/25 11:40pm 58 3 G 4 51° 81% - - 45° 56.6° 44.6° - - -
4/25 11:30pm 74 3 G 5 51° 82% - - 46° 56.6° 44.6° - - -
4/25 11:20pm 79 2 G 3 50° 87% - - 47° 56.6° 44.6° - - -
4/25 11:10pm 82 2 G 3 50° 89% - - 47° 56.6° 44.6° - - -
4/25 11:00pm 95 0 G 1 50° 91% - - 47° 56.6° 44.6° - - -
4/25 10:50pm 0 0 G 0 50° 91% - - 48° 56.6° 44.6° - - -
4/25 10:40pm 95 0 G 1 50° 91% - - 48° 56.6° 44.6° - - -
4/25 10:30pm 91 2 G 4 50° 91% - - 48° 56.6° 44.6° - - -
4/25 10:20pm 58 1 G 4 50° 96% - - 49° 56.6° 44.6° - - -
4/25 10:10pm 88 1 G 3 49° 98% - - 49° 56.6° 44.6° - - -
4/25 10:00pm 84 0 G 1 49° 99% - - 49° 56.6° 44.6° - - -
4/25 9:50pm 62 1 G 3 49° 100% - - 49° 56.6° 44.6° - - -
4/25 9:40pm 45 1 G 2 48° 100% - - 48° 56.6° 44.6° - - -
4/25 9:30pm 32 0 G 2 48° 100% - - 47° 56.6° 44.6° - - -
4/25 9:20pm 55 1 G 2 48° 100% - - 48° 56.6° 44.6° - - -
4/25 9:10pm 35 1 G 2 48° 100% - - 48° 56.6° 44.6° - - -
4/25 9:00pm 39 0 G 1 48° 100% - - 48° 56.6° 44.6° - - -
4/25 8:50pm 78 0 G 1 48° 100% - - 48° 56.6° 44.6° - - -
4/25 8:40pm 162 1 G 3 48° 100% - - 48° 56.6° 44.6° - - -
4/25 8:30pm 127 1 G 2 48° 100% - - 48° 56.6° 44.6° - - -
4/25 8:20pm 259 2 G 4 49° 100% - - 49° 56.6° 44.6° - - -
4/25 8:10pm 240 3 G 5 49° 100% - - 49° 56.6° 44.6° - - -
4/25 8:00pm 236 2 G 3 49° 100% - - 49° 56.6° 44.6° - - -
4/25 7:50pm 249 1 G 3 50° 98% - - 49° 56.6° 44.6° - - -
4/25 7:40pm 249 3 G 6 50° 98% - - 49° 56.6° 44.6° - - -
4/25 7:30pm 245 6 G 9 50° 97% - - 49° 56.6° 44.6° - - -
4/25 7:20pm 242 6 G 9 51° 96% - - 49° 56.6° 44.6° - - -
4/25 7:10pm 259 4 G 9 51° 94% - - 49° 56.6° 44.6° - - -
4/25 7:00pm 261 6 G 10 51° 92% - - 49° 56.6° 44.6° - - -
4/25 6:50pm 244 7 G 12 52° 92% - - 50° 56.6° 44.6° - - -
4/25 6:40pm 265 7 G 11 52° 92% - - 50° 56.6° 44.6° - - -
4/25 6:30pm 252 7 G 11 52° 91% - - 50° 56.6° 44.6° - - -
4/25 6:20pm 250 8 G 12 53° 90% - - 50° 56.6° 44.6° - - -
4/25 6:10pm 248 7 G 12 53° 89% - - 50° 56.6° 44.6° - - -
4/25 6:00pm 247 6 G 12 53° 89% - - 50° 56.6° 44.6° - - -
4/25 5:50pm 238 9 G 17 53° 88% - - 50° 56.6° 44.6° - - -
4/25 5:40pm 236 10 G 18 53° 87% - - 49° 56.6° 44.6° - - -
4/25 5:30pm 253 8 G 14 54° 85% - - 49° 56.6° 44.6° - - -
4/25 5:20pm 256 9 G 14 54° 83% - - 49° 56.6° 44.6° - - -
4/25 5:10pm 243 9 G 13 54° 81% - - 49° 56.6° 44.6° - - -
4/25 5:00pm 239 10 G 15 54° 83% - - 49° 56.6° 44.6° - - -
4/25 4:50pm 256 9 G 14 54° 83% - - 49° 56.6° 44.6° - - -
4/25 4:40pm 261 7 G 11 54° 83% - - 49° 56.6° 44.6° - - -
4/25 4:30pm 238 9 G 14 54° 82% - - 49° 56.6° 44.6° - - -
4/25 4:20pm 240 9 G 15 55° 82% - - 49° 56.6° 44.6° - - -
4/25 4:10pm 244 9 G 16 55° 80% - - 49° 56.6° 44.6° - - -
4/25 4:00pm 246 9 G 15 55° 82% - - 49° 56.6° 44.6° - - -
4/25 3:50pm 246 10 G 18 54° 84% - - 49° 56.6° 44.6° - - -
4/25 3:40pm 256 11 G 18 54° 84% - - 49° 56.6° 44.6° - - -
4/25 3:30pm 247 11 G 17 54° 81% - - 49° 56.6° 44.6° - - -
4/25 3:20pm 240 12 G 18 55° 78% - - 48° 56.6° 44.6° - - -
4/25 3:10pm 236 14 G 18 54° 78% - - 48° 56.6° 44.6° - - -
4/25 3:00pm 236 14 G 18 54° 78% - - 48° 56.6° 44.6° - - -
4/25 2:50pm 232 12 G 19 54° 78% - - 48° 56.6° 44.6° - - -
4/25 2:40pm 239 13 G 18 54° 79% - - 48° 56.6° 44.6° - - -
4/25 2:30pm 239 13 G 19 55° 76% - - 47° 56.6° 44.6° - - -
4/25 2:20pm 232 14 G 19 56° 74% - - 47° 56.6° 44.6° - - -
4/25 2:10pm 233 13 G 23 56° 73% - - 47° 56.6° 44.6° - - -
4/25 2:00pm 242 11 G 20 55° 72% - - 47° 56.6° 44.6° - - -
4/25 1:50pm 237 13 G 21 56° 71% - - 46° 56.6° 44.6° - - -
4/25 1:40pm 239 12 G 21 55° 72% - - 46° 56.1° 44.6° - - -
4/25 1:30pm 232 14 G 22 55° 72% - - 46° 56.1° 44.6° - - -
4/25 1:20pm 243 12 G 20 55° 72% - - 46° 56.1° 44.6° - - -
4/25 1:10pm 237 13 G 21 54° 73% - - 46° 56.1° 44.6° - - -
4/25 1:00pm 245 12 G 19 54° 72% - - 46° 56.1° 44.6° - - -
4/25 12:50pm 242 14 G 22 54° 73% - - 45° 54.4° 44.6° - - -
4/25 12:40pm 235 15 G 23 54° 74% - - 45° 54.4° 44.6° - - -
4/25 12:30pm 233 13 G 22 53° 75% - - 46° 54° 44.6° - - -
4/25 12:20pm 238 12 G 19 53° 76% - - 46° 54° 44.6° - - -
4/25 12:10pm 241 11 G 18 53° 79% - - 46° 53.5° 44.6° - - -
4/25 12:00pm 243 10 G 15 52° 80% - - 46° 52.9° 44.6° - - -
4/25 11:50am 238 11 G 18 52° 83% - - 47° 52.9° 44.6° - - -
4/25 11:40am 238 11 G 17 52° 81% - - 46° 52.9° 44.6° - - -
4/25 11:30am 254 10 G 15 51° 81% - - 46° 52° 44.6° - - -
4/25 11:20am 247 9 G 14 51° 84% - - 46° 52° 44.6° - - -
4/25 11:10am 236 12 G 18 50° 88% - - 46° 50.6° 44.6° - - -
4/25 11:00am 237 12 G 16 50° 90% - - 47° 50.6° 44.6° - - -
4/25 10:50am 242 11 G 15 49° 93% - - 47° 49.9° 44.6° - - -
4/25 10:40am 240 9 G 14 49° 96% - - 48° 49.6° 44.6° - - -
4/25 10:30am 243 10 G 17 48° 99% - - 48° 49.6° 44.6° - - -
4/25 10:20am 244 9 G 14 49° 100% - - 49° 49.6° 44.6° - - -
4/25 10:10am 234 9 G 14 47° 100% - - 47° 48.4° 44.6° - - -
4/25 10:00am 229 9 G 13 47° 100% - - 47° 48.4° 44.6° - - -
4/25 9:50am 231 11 G 15 47° 100% - - 47° 47.9° 44.6° - - -
4/25 9:40am 234 12 G 15 47° 100% - - 47° 47.5° 44.6° - - -
4/25 9:30am 230 11 G 17 47° 100% - - 46° 47° 44.6° - - -
4/25 9:20am 235 12 G 17 46° 100% - - 46° 46.9° 44.6° - - -
4/25 9:10am 234 12 G 20 46° 100% - - 46° 46.9° 44.6° - - -
4/25 9:00am 237 10 G 15 46° 100% - - 46° 46.8° 44.6° - - -
4/25 8:50am 229 12 G 20 46° 100% - - 46° 46.4° 44.6° - - -
4/25 8:40am 231 11 G 16 46° 100% - - 46° 46.4° 44.6° - - -
4/25 8:30am 229 12 G 17 46° 100% - - 46° 46.4° 44.6° - - -
4/25 8:20am 235 11 G 16 46° 100% - - 46° 46.4° 44.6° - - -
4/25 8:10am 236 14 G 20 46° 100% - - 46° 46.2° 44.6° - - -
4/25 8:00am 235 13 G 19 46° 100% - - 46° 46.2° 44.6° - - -
4/25 7:50am 228 13 G 18 46° 100% - - 46° 46.2° 44.6° - - -
4/25 7:40am 230 13 G 18 46° 100% - - 46° 46.2° 44.6° - - -
4/25 7:30am 232 13 G 18 46° 100% - - 45° 46.2° 44.6° - - -
4/25 7:20am 230 14 G 19 46° 100% - - 46° 46.2° 44.6° - - -
4/25 7:10am 234 14 G 20 46° 100% - - 46° 46.2° 44.6° - - -
4/25 7:00am 240 14 G 19 46° 100% - - 45° 46.2° 44.6° - - -
4/25 6:50am 243 13 G 19 45° 100% - - 45° 46.2° 44.6° - - -
4/25 6:40am 242 14 G 20 45° 100% - - 45° 46.2° 44.6° - - -
4/25 6:30am 234 14 G 19 45° 100% - - 45° 46.2° 44.6° - - -
4/25 6:20am 236 15 G 20 45° 100% - - 45° 46.2° 44.6° - - -
4/25 6:10am 239 14 G 19 45° 100% - - 45° 46.2° 44.6° - - -
4/25 6:00am 238 14 G 20 45° 100% - - 45° 46.2° 44.6° - - -
4/25 5:50am 240 13 G 18 45° 100% - - 45° 46.2° 44.6° - - -
4/25 5:40am 233 13 G 18 45° 100% - - 45° 46.2° 44.6° - - -
4/25 5:30am 232 13 G 18 45° 100% - - 45° 46.2° 44.6° - - -
4/25 5:20am 234 15 G 21 45° 100% - - 45° 46.2° 44.6° - - -
4/25 5:10am 231 14 G 20 45° 100% - - 45° 46.2° 44.6° - - -
4/25 5:00am 231 15 G 21 45° 100% - - 45° 46.2° 44.6° - - -
4/25 4:50am 235 14 G 19 45° 100% - - 45° 46.2° 44.6° - - -
4/25 4:40am 237 13 G 19 45° 100% - - 45° 46.2° 44.6° - - -
4/25 4:30am 236 14 G 21 46° 100% - - 46° 46.2° 44.6° - - -
4/25 4:20am 237 17 G 23 46° 100% - - 45° 46.2° 44.6° - - -
4/25 4:10am 230 16 G 23 46° 100% - - 46° 46.2° 44.6° - - -
4/25 4:00am 225 18 G 25 46° 100% - - 46° 46.2° 44.6° - - -
4/25 3:50am 233 16 G 23 46° 100% - - 46° 46.2° 44.6° - - -
4/25 3:40am 228 15 G 19 46° 100% - - 46° 46° 44.6° - - -
4/25 3:30am 224 18 G 24 46° 100% - - 45° 46° 44.6° - - -
4/25 3:20am 231 17 G 26 46° 100% - - 46° 46° 44.6° - - -
4/25 3:10am 233 17 G 24 46° 100% - - 46° 46° 44.6° - - -
4/25 3:00am 235 17 G 23 45° 100% - - 45° 46° 44.6° - - -
4/25 2:50am 236 17 G 25 45° 100% - - 45° 46° 44.6° - - -
4/25 2:40am 238 16 G 21 45° 100% - - 45° 46° 44.6° - - -
4/25 2:30am 234 16 G 22 45° 100% - - 45° 46° 44.6° - - -
4/25 2:20am 231 16 G 22 45° 100% - - 45° 46° 44.6° - - -
4/25 2:10am 234 16 G 21 45° 100% - - 45° 46° 44.6° - - -
4/25 2:00am 232 17 G 24 45° 100% - - 45° 46° 44.6° - - -
4/25 1:50am 228 18 G 27 45° 100% - - 45° 46° 44.6° - - -
4/25 1:40am 226 18 G 23 45° 100% - - 45° 46° 44.6° - - -
4/25 1:30am 229 16 G 24 46° 100% - - 45° 46° 44.6° - - -
4/25 1:20am 226 16 G 21 46° 100% - - 45° 46° 44.6° - - -
4/25 1:10am 231 14 G 20 45° 100% - - 45° 45.9° 44.6° - - -
4/25 1:00am 238 14 G 19 45° 100% - - 45° 45.8° 44.6° - - -
4/25 12:50am 238 14 G 18 45° 100% - - 45° 45.8° 44.6° - - -
4/25 12:40am 233 13 G 17 45° 100% - - 45° 45.7° 44.6° - - -
4/25 12:30am 226 14 G 19 45° 100% - - 45° 45.6° 44.6° - - -
4/25 12:20am 229 15 G 20 45° 100% - - 45° 45.6° 44.7° - - -
4/25 12:10am 231 14 G 22 45° 100% - - 45° 45.6° 44.7° - - -
4/25 12:00am 224 17 G 23 45° 100% - - 45° 59.7° 40.9° - - -
4/24 11:50pm 228 15 G 20 46° 100% - - 46° 59.7° 40.9° - - -
4/24 11:40pm 233 15 G 22 46° 100% - - 46° 59.7° 40.9° - - -
4/24 11:30pm 234 16 G 21 46° 100% - - 46° 59.7° 40.9° - - -
4/24 11:20pm 235 16 G 23 46° 100% - - 46° 59.7° 40.9° - - -
4/24 11:10pm 236 17 G 22 46° 100% - - 46° 59.7° 40.9° - - -
4/24 11:00pm 237 17 G 22 47° 100% - - 47° 59.7° 40.9° - - -
4/24 10:50pm 229 15 G 20 46° 100% - - 46° 59.7° 40.9° - - -
4/24 10:40pm 231 14 G 21 47° 100% - - 47° 59.7° 40.9° - - -
4/24 10:30pm 233 14 G 19 47° 100% - - 47° 59.7° 40.9° - - -
4/24 10:20pm 229 13 G 19 47° 100% - - 47° 59.7° 40.9° - - -
4/24 10:10pm 228 14 G 19 47° 100% - - 47° 59.7° 40.9° - - -
4/24 10:00pm 235 13 G 18 47° 100% - - 47° 59.7° 40.9° - - -
4/24 9:50pm 233 12 G 16 47° 100% - - 47° 59.7° 40.9° - - -
4/24 9:40pm 239 13 G 18 47° 100% - - 47° 59.7° 40.9° - - -
4/24 9:30pm 241 11 G 17 47° 100% - - 47° 59.7° 40.9° - - -
4/24 9:20pm 237 13 G 17 47° 100% - - 47° 59.7° 40.9° - - -
4/24 9:10pm 231 11 G 17 47° 100% - - 47° 59.7° 40.9° - - -
4/24 9:00pm 236 11 G 18 48° 100% - - 48° 59.7° 40.9° - - -
4/24 8:50pm 238 13 G 17 48° 100% - - 48° 59.7° 40.9° - - -
4/24 8:40pm 238 14 G 18 48° 100% - - 48° 59.7° 40.9° - - -
4/24 8:30pm 230 13 G 17 48° 100% - - 48° 59.7° 40.9° - - -
4/24 8:20pm 238 13 G 19 48° 100% - - 48° 59.7° 40.9° - - -
4/24 8:10pm 238 13 G 18 49° 100% - - 49° 59.7° 40.9° - - -
4/24 8:00pm 233 13 G 19 49° 100% - - 49° 59.7° 40.9° - - -
4/24 7:50pm 239 14 G 18 49° 100% - - 49° 59.7° 40.9° - - -
4/24 7:40pm 233 14 G 19 49° 100% - - 49° 59.7° 40.9° - - -
4/24 7:30pm 235 15 G 21 49° 100% - - 49° 59.7° 40.9° - - -
4/24 7:20pm 235 15 G 20 50° 100% - - 50° 59.7° 40.9° - - -
4/24 7:10pm 231 15 G 19 50° 100% - - 50° 59.7° 40.9° - - -
4/24 7:00pm 232 13 G 18 50° 100% - - 50° 59.7° 40.9° - - -
4/24 6:50pm 235 14 G 19 51° 99% - - 50° 59.7° 40.9° - - -
4/24 6:40pm 236 15 G 19 51° 99% - - 51° 59.7° 40.9° - - -
4/24 6:30pm 235 15 G 20 51° 95% - - 50° 59.7° 40.9° - - -
4/24 6:20pm 233 14 G 18 52° 93% - - 50° 59.7° 40.9° - - -
4/24 6:10pm 234 14 G 19 52° 91% - - 50° 59.7° 40.9° - - -
4/24 6:00pm 233 15 G 21 53° 89% - - 50° 59.7° 40.9° - - -